Impacts TAF Board
For situational awareness. Not to be used for flight planning purposes.
IDs:

KBOS - Boston/Logan Intl, MA, US

Issued at 1433 UTC 10 Aug 2022
Updated at 1435 UTC 10 Aug 2022
Potential Impact None Slight Moderate High
Time1354Z 10/15Z 10/16Z 10/17Z 10/18Z 10/19Z 10/20Z 10/21Z 10/22Z 10/23Z 11/00Z 11/01Z 11/02Z 11/03Z>>
Type OBS PRVL PRVL PRVL PRVL PRVL PRVL PRVL PRVL PRVL PRVL PRVL PRVL PRVL
VIS 10 >6 >6 >6 >6 >6 >6 >6 >6 >6 >6 >6 >6 >6
CIG 10 15 15 15 -- -- -- -- -- -- 15 15 15 30
Cover BKN OVC OVC OVC SCT SCT SCT SCT SCT SCT OVC OVC OVC BKN
FltCat MVFR MVFR MVFR MVFR VFR VFR VFR VFR VFR VFR MVFR MVFR MVFR MVFR
WX -- -- -- -- -- -- -- -- -- -- -- -- -- --
WDir 70 80 80 80 90 90 90 90 90 90 90 90 90 160
WSpd 6 7 7 7 8 8 8 8 8 8 4 4 4 3
WGst -- -- -- -- -- -- -- -- -- -- -- -- -- --
WSHgt -- -- -- -- -- -- -- -- -- -- -- -- -- --
WSDir -- -- -- -- -- -- -- -- -- -- -- -- -- --
WSSpd -- -- -- -- -- -- -- -- -- -- -- -- -- --
Raw TAF
KBOS 101433Z 1015/1118 08007KT P6SM OVC015
  FM101800 09008KT P6SM SCT040
  FM110000 09004KT P6SM OVC015
  FM110300 16003KT P6SM BKN030
  FM111100 19003KT P6SM BKN020


Raw METAR
KBOS 101354Z 07006KT 10SM BKN010 BKN035 BKN120 21/17 A3008 RMK AO2 SLP186 T02060172
KBOS 101254Z 04007KT 10SM BKN010 OVC031 20/17 A3008 RMK AO2 SLP187 T02000172
KBOS 101229Z 03006KT 10SM BKN012 OVC031 19/17 A3008 RMK AO2 T01940172
KBOS 101154Z 03006KT 10SM FEW012 BKN032 OVC055 19/17 A3008 RMK AO2 RAE06 SLP185 P0000 60000 70014 T01890172 10194 20189 51007 $
KBOS 101135Z 03009KT 10SM SCT012 OVC055 19/17 A3007 RMK AO2 RAE06 P0000 T01890172 $

METAR Board
Radar Display
Forecast Discussion
For situational awareness. Not to be used for flight planning purposes.